Time;durP1;ratioP1;P1;durP2;ratioP2;P2;SDS_P1;SDS_P2;PMS_P1;PMS_P2;Temp;Humidity;BMP_temperature;BMP_pressure;BME280_temperature;BME280_humidity;BME280_pressure;Samples;Min_cycle;Max_cycle;Signal;HPM_P1;HPM_P2
2024/01/30 00:03:30;;;;;;;7.60;5.88;;;;;;;;;;10332169;28;20211;-66
2024/01/30 00:08:31;;;;;;;8.45;6.20;;;;;;;;;;10325643;28;20223;-67
2024/01/30 00:13:31;;;;;;;7.50;5.78;;;;;;;;;;10341810;28;20215;-66
2024/01/30 00:18:31;;;;;;;7.75;5.45;;;;;;;;;;10344998;28;20274;-66
2024/01/30 00:23:32;;;;;;;10.48;6.07;;;;;;;;;;10343935;28;20222;-67
2024/01/30 00:28:32;;;;;;;7.63;5.28;;;;;;;;;;10345305;28;20455;-67
2024/01/30 00:33:32;;;;;;;12.07;5.80;;;;;;;;;;10339574;28;20223;-67
2024/01/30 00:38:33;;;;;;;5.72;5.15;;;;;;;;;;10341966;28;20960;-66
2024/01/30 00:43:33;;;;;;;9.57;5.38;;;;;;;;;;10344219;28;20223;-66
2024/01/30 00:48:34;;;;;;;7.22;5.90;;;;;;;;;;10343740;28;20215;-66
2024/01/30 00:53:34;;;;;;;5.53;5.05;;;;;;;;;;10341848;28;20295;-67
2024/01/30 00:58:34;;;;;;;8.05;5.53;;;;;;;;;;10341048;28;20224;-66
2024/01/30 01:03:35;;;;;;;7.57;5.32;;;;;;;;;;10341759;28;20208;-66
2024/01/30 01:08:35;;;;;;;9.23;5.90;;;;;;;;;;10342023;28;20750;-66
2024/01/30 01:13:36;;;;;;;8.40;5.10;;;;;;;;;;10339954;28;20222;-66
2024/01/30 01:18:36;;;;;;;4.82;4.35;;;;;;;;;;10348690;28;20246;-67
2024/01/30 01:23:36;;;;;;;5.82;4.57;;;;;;;;;;10348599;28;20657;-67
2024/01/30 01:28:37;;;;;;;8.52;5.45;;;;;;;;;;10343022;28;20549;-66
2024/01/30 01:33:37;;;;;;;5.95;4.80;;;;;;;;;;10347709;28;20231;-66
2024/01/30 01:38:38;;;;;;;8.65;4.80;;;;;;;;;;10342474;28;20347;-66
2024/01/30 01:43:39;;;;;;;7.65;4.93;;;;;;;;;;10357110;28;20647;-67
2024/01/30 01:48:39;;;;;;;5.93;5.13;;;;;;;;;;10350142;28;20345;-67
2024/01/30 01:53:40;;;;;;;7.85;4.93;;;;;;;;;;10357772;28;20211;-67
2024/01/30 01:58:41;;;;;;;7.82;5.15;;;;;;;;;;10347137;28;20485;-67
2024/01/30 02:03:41;;;;;;;6.90;4.88;;;;;;;;;;10343542;28;20301;-66
2024/01/30 02:08:42;;;;;;;8.38;5.18;;;;;;;;;;10347355;28;20596;-67
2024/01/30 02:13:42;;;;;;;6.30;4.93;;;;;;;;;;10341984;28;20212;-66
2024/01/30 02:18:45;;;;;;;11.30;5.60;;;;;;;;;;10336479;28;20215;-66
2024/01/30 02:23:49;;;;;;;7.30;5.15;;;;;;;;;;10328805;28;20262;-66
2024/01/30 02:28:49;;;;;;;7.88;5.22;;;;;;;;;;10339552;28;20682;-66
2024/01/30 02:33:50;;;;;;;9.30;5.25;;;;;;;;;;10331102;28;20216;-66
2024/01/30 02:38:50;;;;;;;6.95;5.53;;;;;;;;;;10340506;28;20906;-67
2024/01/30 02:43:50;;;;;;;7.65;5.35;;;;;;;;;;10331421;28;20525;-66
2024/01/30 02:48:50;;;;;;;5.82;4.88;;;;;;;;;;10336118;28;20227;-66
2024/01/30 02:53:50;;;;;;;7.10;4.82;;;;;;;;;;10333229;28;20722;-66
2024/01/30 02:58:51;;;;;;;4.88;4.45;;;;;;;;;;10337801;28;20228;-66
2024/01/30 03:03:51;;;;;;;8.68;4.68;;;;;;;;;;10332619;28;20714;-66
2024/01/30 03:08:51;;;;;;;6.38;4.05;;;;;;;;;;10325766;28;20455;-67
2024/01/30 03:13:51;;;;;;;7.22;5.20;;;;;;;;;;10316362;28;20772;-66
2024/01/30 03:18:51;;;;;;;8.02;4.60;;;;;;;;;;10329209;28;20277;-66
2024/01/30 03:23:52;;;;;;;10.35;4.60;;;;;;;;;;10326547;28;20212;-66
2024/01/30 03:28:52;;;;;;;6.43;5.10;;;;;;;;;;10335923;28;20783;-67
2024/01/30 03:33:52;;;;;;;5.18;4.70;;;;;;;;;;10352012;28;20231;-66
2024/01/30 03:38:52;;;;;;;7.72;5.07;;;;;;;;;;10339492;28;20332;-66
2024/01/30 03:43:53;;;;;;;6.88;5.63;;;;;;;;;;10355779;28;20212;-66
2024/01/30 03:48:53;;;;;;;4.60;4.20;;;;;;;;;;10341326;28;20278;-67
2024/01/30 03:53:53;;;;;;;5.75;4.47;;;;;;;;;;10343736;28;20216;-66
2024/01/30 03:58:54;;;;;;;8.20;4.80;;;;;;;;;;10341649;28;20289;-66
2024/01/30 04:03:54;;;;;;;6.43;4.72;;;;;;;;;;10343688;28;20204;-66
2024/01/30 04:08:54;;;;;;;6.07;4.22;;;;;;;;;;10342152;28;20219;-66
2024/01/30 04:13:54;;;;;;;4.93;4.20;;;;;;;;;;10346046;28;20208;-66
2024/01/30 04:18:55;;;;;;;5.25;4.32;;;;;;;;;;10332886;28;20222;-66
2024/01/30 04:23:55;;;;;;;6.10;4.90;;;;;;;;;;10345745;28;20706;-67
2024/01/30 04:28:56;;;;;;;7.60;5.00;;;;;;;;;;10341752;28;20220;-67
2024/01/30 04:33:56;;;;;;;7.50;4.47;;;;;;;;;;10347306;28;20707;-67
2024/01/30 04:38:56;;;;;;;5.50;4.50;;;;;;;;;;10346040;28;21390;-66
2024/01/30 04:43:56;;;;;;;5.57;4.60;;;;;;;;;;10329633;28;20210;-67
2024/01/30 04:48:56;;;;;;;9.68;5.10;;;;;;;;;;10350509;28;20222;-66
2024/01/30 04:53:57;;;;;;;6.32;5.15;;;;;;;;;;10356419;28;20462;-65
2024/01/30 04:58:57;;;;;;;10.95;5.85;;;;;;;;;;10346541;28;20224;-65
2024/01/30 05:03:57;;;;;;;7.97;5.28;;;;;;;;;;10344885;28;20581;-65
2024/01/30 05:08:57;;;;;;;5.68;4.82;;;;;;;;;;10342674;28;20968;-65
2024/01/30 05:13:58;;;;;;;6.70;5.70;;;;;;;;;;10352381;28;20498;-65
2024/01/30 05:18:59;;;;;;;5.13;4.65;;;;;;;;;;10347103;28;20243;-65
2024/01/30 05:23:59;;;;;;;6.88;5.50;;;;;;;;;;10354180;28;20240;-65
2024/01/30 05:28:59;;;;;;;12.57;6.07;;;;;;;;;;10350747;28;20216;-65
2024/01/30 05:33:59;;;;;;;6.45;4.95;;;;;;;;;;10346158;28;20297;-65
2024/01/30 05:39:00;;;;;;;7.07;5.35;;;;;;;;;;10341060;28;20266;-65
2024/01/30 05:44:00;;;;;;;8.63;5.30;;;;;;;;;;10349261;28;20212;-65
2024/01/30 05:49:00;;;;;;;11.57;5.28;;;;;;;;;;10362390;28;20239;-65
2024/01/30 05:54:03;;;;;;;5.30;4.45;;;;;;;;;;10351632;28;20227;-65
2024/01/30 05:59:03;;;;;;;5.85;5.30;;;;;;;;;;10333710;28;20259;-65
2024/01/30 06:04:03;;;;;;;15.43;4.72;;;;;;;;;;10345581;28;20619;-65
2024/01/30 06:09:04;;;;;;;5.53;4.95;;;;;;;;;;10334473;28;20224;-65
2024/01/30 06:14:04;;;;;;;6.55;4.97;;;;;;;;;;10335410;28;20228;-65
2024/01/30 06:19:05;;;;;;;6.75;4.80;;;;;;;;;;10345161;28;20224;-65
2024/01/30 06:24:06;;;;;;;7.53;5.22;;;;;;;;;;10331969;28;20211;-65
2024/01/30 06:29:07;;;;;;;6.07;5.00;;;;;;;;;;10332245;28;20223;-65
2024/01/30 06:34:08;;;;;;;8.70;5.22;;;;;;;;;;10339927;28;20478;-65
2024/01/30 06:39:08;;;;;;;7.03;5.43;;;;;;;;;;10333964;28;20216;-65
2024/01/30 06:44:09;;;;;;;7.75;5.65;;;;;;;;;;10357874;28;20204;-65
2024/01/30 06:49:09;;;;;;;6.60;5.43;;;;;;;;;;10346438;28;20298;-64
2024/01/30 06:54:09;;;;;;;7.20;4.93;;;;;;;;;;10348727;28;20686;-65
2024/01/30 06:59:09;;;;;;;5.93;5.38;;;;;;;;;;10342426;28;20514;-65
2024/01/30 07:04:09;;;;;;;7.15;4.70;;;;;;;;;;10351059;28;20208;-65
2024/01/30 07:09:10;;;;;;;5.97;4.20;;;;;;;;;;10351951;28;20270;-65
2024/01/30 07:14:10;;;;;;;5.85;5.22;;;;;;;;;;10337324;28;20211;-65
2024/01/30 07:19:10;;;;;;;10.45;5.60;;;;;;;;;;10350086;28;20243;-65
2024/01/30 07:24:10;;;;;;;6.53;5.30;;;;;;;;;;10355733;28;20810;-65
2024/01/30 07:29:11;;;;;;;9.90;6.25;;;;;;;;;;10349558;28;20262;-66
2024/01/30 07:34:11;;;;;;;7.80;5.45;;;;;;;;;;10353588;28;20270;-66
2024/01/30 07:39:12;;;;;;;10.85;6.57;;;;;;;;;;10344221;28;20270;-66
2024/01/30 07:44:13;;;;;;;5.70;5.13;;;;;;;;;;10342108;28;20204;-66
2024/01/30 07:49:14;;;;;;;11.55;5.95;;;;;;;;;;10352365;28;20216;-66
2024/01/30 07:54:14;;;;;;;7.95;5.13;;;;;;;;;;10342380;28;20455;-65
2024/01/30 07:59:15;;;;;;;10.65;5.80;;;;;;;;;;10348050;28;20226;-66
2024/01/30 08:04:15;;;;;;;10.20;7.10;;;;;;;;;;10341089;28;20587;-65
2024/01/30 08:09:15;;;;;;;8.57;6.13;;;;;;;;;;10341754;28;20635;-66
2024/01/30 08:14:15;;;;;;;8.20;6.90;;;;;;;;;;10332732;28;20266;-66
2024/01/30 08:19:16;;;;;;;10.73;5.97;;;;;;;;;;10343123;28;20227;-67
2024/01/30 08:24:16;;;;;;;10.38;6.32;;;;;;;;;;10341626;28;20463;-66
2024/01/30 08:29:16;;;;;;;10.43;6.68;;;;;;;;;;10339867;28;20219;-66
2024/01/30 08:34:16;;;;;;;8.68;7.03;;;;;;;;;;10344693;28;20482;-67
2024/01/30 08:39:17;;;;;;;15.38;6.95;;;;;;;;;;10338879;28;20518;-66
2024/01/30 08:44:17;;;;;;;11.73;7.97;;;;;;;;;;10324793;28;20212;-67
2024/01/30 08:49:18;;;;;;;13.05;7.78;;;;;;;;;;10340713;28;20219;-66
2024/01/30 08:54:18;;;;;;;12.75;7.40;;;;;;;;;;10337424;28;20456;-67
2024/01/30 08:59:18;;;;;;;12.52;6.72;;;;;;;;;;10340093;28;20478;-66
2024/01/30 09:04:19;;;;;;;8.85;7.35;;;;;;;;;;10345809;28;20590;-66
2024/01/30 09:09:20;;;;;;;9.05;6.63;;;;;;;;;;10345141;28;20231;-67
2024/01/30 09:14:20;;;;;;;10.18;6.90;;;;;;;;;;10330670;28;20212;-67
2024/01/30 09:19:21;;;;;;;13.90;7.68;;;;;;;;;;10342358;28;20212;-66
2024/01/30 09:24:21;;;;;;;8.98;6.80;;;;;;;;;;10348026;28;20467;-67
2024/01/30 09:29:21;;;;;;;9.60;6.28;;;;;;;;;;10343476;28;20262;-69
2024/01/30 09:34:22;;;;;;;7.32;5.93;;;;;;;;;;10355854;28;20625;-67
2024/01/30 09:39:22;;;;;;;8.68;6.32;;;;;;;;;;10353702;28;20311;-67
2024/01/30 09:44:22;;;;;;;7.33;6.63;;;;;;;;;;10351962;28;20462;-67
2024/01/30 09:49:24;;;;;;;6.75;6.05;;;;;;;;;;10352466;28;20517;-67
2024/01/30 09:54:24;;;;;;;9.80;5.90;;;;;;;;;;10349060;28;20224;-67
2024/01/30 09:59:24;;;;;;;6.03;5.45;;;;;;;;;;10353916;28;20328;-67
2024/01/30 10:04:25;;;;;;;8.90;4.88;;;;;;;;;;10350191;28;20200;-67
2024/01/30 10:09:25;;;;;;;5.03;4.43;;;;;;;;;;10352741;28;20502;-67
2024/01/30 10:14:25;;;;;;;6.68;5.10;;;;;;;;;;10336145;28;20629;-67
2024/01/30 10:19:25;;;;;;;5.28;4.25;;;;;;;;;;10344763;28;20223;-67
2024/01/30 10:24:26;;;;;;;7.22;4.40;;;;;;;;;;10336077;28;20576;-68
2024/01/30 10:29:27;;;;;;;9.18;4.78;;;;;;;;;;10355114;28;20729;-68
2024/01/30 10:34:28;;;;;;;8.30;4.45;;;;;;;;;;10350966;28;20733;-67
2024/01/30 10:39:30;;;;;;;5.18;3.53;;;;;;;;;;10340369;28;20223;-67
2024/01/30 10:44:36;;;;;;;5.13;3.78;;;;;;;;;;10353578;28;20204;-68
2024/01/30 10:49:37;;;;;;;6.53;4.25;;;;;;;;;;10346855;28;20212;-67
2024/01/30 10:54:37;;;;;;;5.07;4.07;;;;;;;;;;10351987;28;20671;-68
2024/01/30 10:59:37;;;;;;;6.77;3.93;;;;;;;;;;10347495;28;20241;-68
2024/01/30 11:04:40;;;;;;;5.68;4.20;;;;;;;;;;10344083;28;21017;-68
2024/01/30 11:09:41;;;;;;;4.50;4.05;;;;;;;;;;10341278;28;20228;-67
2024/01/30 11:14:43;;;;;;;4.05;3.75;;;;;;;;;;10341338;28;20232;-67
2024/01/30 11:19:43;;;;;;;5.82;4.13;;;;;;;;;;10346920;28;20271;-67
2024/01/30 11:24:46;;;;;;;4.30;3.90;;;;;;;;;;10349920;28;20204;-67
2024/01/30 11:29:50;;;;;;;6.47;3.95;;;;;;;;;;10350356;28;20597;-66
2024/01/30 11:34:50;;;;;;;5.18;4.10;;;;;;;;;;10357442;28;20286;-67
2024/01/30 11:39:50;;;;;;;5.57;4.07;;;;;;;;;;10341899;28;20269;-67
2024/01/30 11:44:51;;;;;;;4.00;3.78;;;;;;;;;;10344312;28;20448;-66
2024/01/30 11:49:51;;;;;;;3.72;3.50;;;;;;;;;;10347105;28;20224;-67
2024/01/30 11:54:51;;;;;;;3.85;3.65;;;;;;;;;;10352727;28;20638;-67
2024/01/30 11:59:52;;;;;;;5.80;3.70;;;;;;;;;;10343645;28;20247;-67
2024/01/30 12:04:52;;;;;;;4.72;4.32;;;;;;;;;;10348993;28;20446;-67
2024/01/30 12:09:54;;;;;;;5.82;3.58;;;;;;;;;;10344321;28;20591;-66
2024/01/30 12:14:54;;;;;;;3.97;3.67;;;;;;;;;;10333270;28;20231;-68
2024/01/30 12:20:03;;;;;;;4.55;4.00;;;;;;;;;;10339268;28;20259;-67
2024/01/30 12:25:10;;;;;;;3.47;3.20;;;;;;;;;;10360412;28;20236;-67
2024/01/30 12:30:12;;;;;;;4.32;3.75;;;;;;;;;;10344682;28;20753;-67
2024/01/30 12:35:13;;;;;;;4.35;3.42;;;;;;;;;;10348357;28;20622;-67
2024/01/30 12:40:14;;;;;;;6.22;4.28;;;;;;;;;;10321033;28;20246;-67
2024/01/30 12:45:15;;;;;;;3.95;3.63;;;;;;;;;;10322714;28;20208;-67
2024/01/30 12:50:19;;;;;;;5.97;3.72;;;;;;;;;;10338523;28;20215;-67
2024/01/30 12:55:19;;;;;;;6.38;3.58;;;;;;;;;;10343685;28;20821;-67
2024/01/30 13:00:19;;;;;;;4.10;3.70;;;;;;;;;;10341440;28;20220;-67
2024/01/30 13:05:20;;;;;;;4.40;4.00;;;;;;;;;;10349680;28;20274;-67
2024/01/30 13:10:21;;;;;;;4.28;3.90;;;;;;;;;;10352521;28;20558;-67
2024/01/30 13:15:22;;;;;;;3.92;3.63;;;;;;;;;;10348981;28;20212;-67
2024/01/30 13:20:22;;;;;;;3.97;3.65;;;;;;;;;;10349449;28;20322;-67
2024/01/30 13:25:23;;;;;;;3.72;3.53;;;;;;;;;;10358362;28;20857;-68
2024/01/30 13:30:23;;;;;;;5.00;4.32;;;;;;;;;;10353466;28;20486;-68
2024/01/30 13:35:23;;;;;;;6.00;3.70;;;;;;;;;;10358119;28;20235;-67
2024/01/30 13:40:23;;;;;;;4.05;3.70;;;;;;;;;;10350246;28;20247;-68
2024/01/30 13:45:24;;;;;;;4.05;3.65;;;;;;;;;;10355124;28;20200;-70
2024/01/30 13:50:24;;;;;;;4.72;3.78;;;;;;;;;;10357393;28;20739;-68
2024/01/30 13:55:25;;;;;;;3.63;3.33;;;;;;;;;;10357529;28;20218;-68
2024/01/30 14:00:26;;;;;;;3.75;3.42;;;;;;;;;;10345190;28;20307;-67
2024/01/30 14:05:27;;;;;;;6.57;3.75;;;;;;;;;;10352692;28;20775;-68
2024/01/30 14:10:28;;;;;;;3.80;3.50;;;;;;;;;;10349477;28;20220;-68
2024/01/30 14:15:28;;;;;;;5.40;3.42;;;;;;;;;;10352798;28;20329;-67
2024/01/30 14:20:28;;;;;;;4.82;3.60;;;;;;;;;;10349707;28;20365;-68
2024/01/30 14:25:28;;;;;;;6.10;4.45;;;;;;;;;;10342949;28;20783;-68
2024/01/30 14:30:29;;;;;;;7.03;4.35;;;;;;;;;;10352299;28;20209;-67
2024/01/30 14:35:29;;;;;;;5.07;4.40;;;;;;;;;;10349338;28;20208;-67
2024/01/30 14:40:29;;;;;;;5.88;4.55;;;;;;;;;;10341143;28;20525;-69
2024/01/30 14:45:31;;;;;;;5.85;4.55;;;;;;;;;;10344800;28;20717;-68
2024/01/30 14:50:31;;;;;;;10.95;4.45;;;;;;;;;;10356232;28;20257;-68
2024/01/30 14:55:32;;;;;;;4.37;4.07;;;;;;;;;;10349052;28;20306;-68
2024/01/30 15:00:32;;;;;;;7.38;4.22;;;;;;;;;;10351331;28;20470;-67
2024/01/30 15:05:32;;;;;;;5.30;4.30;;;;;;;;;;10336254;28;20215;-68
2024/01/30 15:10:33;;;;;;;4.93;4.40;;;;;;;;;;10338523;28;20226;-68
2024/01/30 15:15:34;;;;;;;6.32;5.57;;;;;;;;;;10344467;28;20212;-68
2024/01/30 15:20:34;;;;;;;5.50;4.28;;;;;;;;;;10341915;28;20215;-68
2024/01/30 15:25:34;;;;;;;8.25;4.93;;;;;;;;;;10344153;28;20222;-67
2024/01/30 15:30:35;;;;;;;6.80;4.38;;;;;;;;;;10345502;28;20281;-68
2024/01/30 15:35:35;;;;;;;5.63;4.45;;;;;;;;;;10339752;28;20218;-67
2024/01/30 15:40:35;;;;;;;5.63;5.00;;;;;;;;;;10342193;28;20725;-67
2024/01/30 15:45:35;;;;;;;9.52;5.75;;;;;;;;;;10340616;28;20284;-67
2024/01/30 15:50:36;;;;;;;6.30;5.43;;;;;;;;;;10319073;28;20553;-67
2024/01/30 15:55:36;;;;;;;4.57;4.13;;;;;;;;;;10335872;28;20217;-67
2024/01/30 16:00:37;;;;;;;6.10;5.20;;;;;;;;;;10324334;28;21052;-67
2024/01/30 16:05:37;;;;;;;7.15;4.68;;;;;;;;;;10323747;28;20220;-67
2024/01/30 16:10:38;;;;;;;7.88;5.90;;;;;;;;;;10335974;28;21743;-67
2024/01/30 16:15:40;;;;;;;7.60;6.50;;;;;;;;;;10337397;28;20238;-67
2024/01/30 16:20:41;;;;;;;8.10;5.88;;;;;;;;;;10319259;28;20223;-67
2024/01/30 16:25:41;;;;;;;14.93;8.82;;;;;;;;;;10344927;28;20204;-67
2024/01/30 16:30:42;;;;;;;12.70;6.40;;;;;;;;;;10355933;28;20227;-68
2024/01/30 16:35:42;;;;;;;13.95;7.32;;;;;;;;;;10341193;28;20751;-68
2024/01/30 16:40:43;;;;;;;11.93;6.75;;;;;;;;;;10344699;28;20223;-67
2024/01/30 16:45:43;;;;;;;9.23;6.20;;;;;;;;;;10355928;28;20749;-67
2024/01/30 16:50:44;;;;;;;11.15;6.32;;;;;;;;;;10362717;28;20819;-67
2024/01/30 16:55:44;;;;;;;10.52;6.55;;;;;;;;;;10358546;28;20618;-67
2024/01/30 17:00:44;;;;;;;9.07;5.50;;;;;;;;;;10351434;28;20314;-67
2024/01/30 17:05:45;;;;;;;8.40;6.13;;;;;;;;;;10358544;28;20675;-67
2024/01/30 17:10:45;;;;;;;13.25;7.55;;;;;;;;;;10354415;28;20219;-67
2024/01/30 17:15:45;;;;;;;13.63;8.10;;;;;;;;;;10363243;28;20269;-67
2024/01/30 17:20:46;;;;;;;14.65;7.88;;;;;;;;;;10356719;28;20208;-68
2024/01/30 17:25:47;;;;;;;19.75;9.23;;;;;;;;;;10348474;28;20235;-68
2024/01/30 17:30:48;;;;;;;14.50;8.18;;;;;;;;;;10356207;28;20246;-67
2024/01/30 17:35:48;;;;;;;12.35;7.53;;;;;;;;;;10339675;28;20327;-67
2024/01/30 17:40:50;;;;;;;13.43;8.70;;;;;;;;;;10351569;28;20216;-67
2024/01/30 17:45:51;;;;;;;9.77;7.22;;;;;;;;;;10356760;28;20223;-67
2024/01/30 17:50:51;;;;;;;13.30;7.32;;;;;;;;;;10350713;28;20219;-68
2024/01/30 17:55:51;;;;;;;14.40;8.48;;;;;;;;;;10353687;28;20442;-68
2024/01/30 18:00:52;;;;;;;13.27;8.30;;;;;;;;;;10340510;28;20813;-67
2024/01/30 18:05:54;;;;;;;11.65;8.10;;;;;;;;;;10352161;28;20812;-68
2024/01/30 18:10:54;;;;;;;11.50;8.05;;;;;;;;;;10350419;28;20215;-68
2024/01/30 18:15:55;;;;;;;13.23;7.50;;;;;;;;;;10344520;28;20698;-68
2024/01/30 18:20:55;;;;;;;11.18;8.20;;;;;;;;;;10351912;28;20216;-69
2024/01/30 18:25:59;;;;;;;11.02;7.55;;;;;;;;;;10338997;28;20275;-68
2024/01/30 18:30:59;;;;;;;10.55;7.43;;;;;;;;;;10352072;28;20263;-70
2024/01/30 18:36:00;;;;;;;18.02;10.50;;;;;;;;;;10342162;28;20343;-67
2024/01/30 18:41:00;;;;;;;13.18;10.15;;;;;;;;;;10335972;28;21043;-67
2024/01/30 18:46:00;;;;;;;13.20;8.68;;;;;;;;;;10335732;28;20707;-67
2024/01/30 18:51:00;;;;;;;10.30;7.60;;;;;;;;;;10335477;28;20713;-68
2024/01/30 18:56:02;;;;;;;10.50;7.38;;;;;;;;;;10340409;28;20213;-67
2024/01/30 19:01:02;;;;;;;10.80;6.95;;;;;;;;;;10335700;28;20258;-68
2024/01/30 19:06:03;;;;;;;8.65;6.90;;;;;;;;;;10327841;28;20282;-68
2024/01/30 19:11:03;;;;;;;9.55;6.90;;;;;;;;;;10344393;28;20238;-69
2024/01/30 19:16:04;;;;;;;9.23;7.18;;;;;;;;;;10332904;28;20219;-67
2024/01/30 19:21:04;;;;;;;10.63;7.82;;;;;;;;;;10329061;28;20223;-67
2024/01/30 19:26:04;;;;;;;15.63;8.23;;;;;;;;;;10322392;28;20216;-67
2024/01/30 19:31:04;;;;;;;10.68;6.88;;;;;;;;;;10334113;28;20247;-67
2024/01/30 19:36:05;;;;;;;12.73;7.65;;;;;;;;;;10328171;28;20466;-67
2024/01/30 19:41:07;;;;;;;23.13;12.60;;;;;;;;;;10326963;28;20994;-67
2024/01/30 19:46:10;;;;;;;13.13;7.70;;;;;;;;;;10325985;28;20227;-67
2024/01/30 19:51:10;;;;;;;10.27;6.32;;;;;;;;;;10328703;28;20295;-67
2024/01/30 19:56:11;;;;;;;13.90;8.50;;;;;;;;;;10311921;28;20274;-68
2024/01/30 20:01:11;;;;;;;10.52;7.93;;;;;;;;;;10327044;28;20223;-68
2024/01/30 20:06:11;;;;;;;11.68;7.93;;;;;;;;;;10326243;28;20485;-67
2024/01/30 20:11:14;;;;;;;8.80;7.22;;;;;;;;;;10319778;28;20541;-67
2024/01/30 20:16:14;;;;;;;11.18;7.78;;;;;;;;;;10327476;28;20737;-68
2024/01/30 20:21:14;;;;;;;11.30;7.72;;;;;;;;;;10320592;28;20251;-68
2024/01/30 20:26:14;;;;;;;12.98;7.95;;;;;;;;;;10325122;28;20232;-67
2024/01/30 20:31:15;;;;;;;8.25;7.20;;;;;;;;;;10329934;28;20228;-67
2024/01/30 20:36:15;;;;;;;11.85;7.68;;;;;;;;;;10326685;28;20251;-67
2024/01/30 20:41:15;;;;;;;13.38;8.70;;;;;;;;;;10326576;28;20220;-67
2024/01/30 20:46:16;;;;;;;8.85;6.05;;;;;;;;;;10329759;28;20258;-67
2024/01/30 20:51:16;;;;;;;9.65;6.97;;;;;;;;;;10332636;28;20231;-67
2024/01/30 20:56:17;;;;;;;14.82;8.40;;;;;;;;;;10321566;28;20243;-67
2024/01/30 21:01:17;;;;;;;8.32;6.72;;;;;;;;;;10321680;28;20266;-67
2024/01/30 21:06:17;;;;;;;9.13;6.85;;;;;;;;;;10327740;28;20208;-67
2024/01/30 21:11:18;;;;;;;13.52;6.65;;;;;;;;;;10319591;28;20222;-67
2024/01/30 21:16:19;;;;;;;8.60;6.53;;;;;;;;;;10331396;28;20224;-67
2024/01/30 21:21:19;;;;;;;11.82;7.30;;;;;;;;;;10334437;28;20262;-68
2024/01/30 21:26:19;;;;;;;8.88;6.78;;;;;;;;;;10346212;28;20762;-67
2024/01/30 21:31:20;;;;;;;7.20;5.57;;;;;;;;;;10341857;28;20228;-66
2024/01/30 21:36:20;;;;;;;14.93;6.07;;;;;;;;;;10352269;28;20216;-67
2024/01/30 21:41:22;;;;;;;5.95;5.13;;;;;;;;;;10338858;28;20225;-67
2024/01/30 21:46:23;;;;;;;7.18;5.10;;;;;;;;;;10349078;28;20287;-67
2024/01/30 21:51:23;;;;;;;7.95;5.82;;;;;;;;;;10347609;28;20331;-67
2024/01/30 21:56:23;;;;;;;8.48;5.63;;;;;;;;;;10344872;28;21542;-67
2024/01/30 22:01:24;;;;;;;6.37;5.30;;;;;;;;;;10338218;28;20243;-67
2024/01/30 22:06:24;;;;;;;8.27;5.47;;;;;;;;;;10350052;28;20455;-67
2024/01/30 22:11:24;;;;;;;5.85;5.28;;;;;;;;;;10342552;28;20462;-67
2024/01/30 22:16:24;;;;;;;11.32;6.85;;;;;;;;;;10340449;28;20458;-67
2024/01/30 22:21:25;;;;;;;10.63;6.85;;;;;;;;;;10350692;28;20763;-67
2024/01/30 22:26:25;;;;;;;11.50;6.80;;;;;;;;;;10346806;28;20852;-67
2024/01/30 22:31:26;;;;;;;12.95;7.70;;;;;;;;;;10353893;28;20230;-67
2024/01/30 22:36:26;;;;;;;22.38;10.32;;;;;;;;;;10343539;28;20785;-67
2024/01/30 22:41:28;;;;;;;12.77;8.15;;;;;;;;;;10343233;28;20270;-67
2024/01/30 22:46:28;;;;;;;11.95;7.80;;;;;;;;;;10362964;28;20212;-67
2024/01/30 22:51:29;;;;;;;14.90;7.70;;;;;;;;;;10355572;28;20852;-67
2024/01/30 22:56:29;;;;;;;7.10;6.05;;;;;;;;;;10352617;28;20623;-67
2024/01/30 23:01:29;;;;;;;9.07;5.88;;;;;;;;;;10342095;28;20238;-67
2024/01/30 23:06:30;;;;;;;8.90;5.72;;;;;;;;;;10347805;28;20216;-66
2024/01/30 23:11:30;;;;;;;12.75;5.53;;;;;;;;;;10359849;28;20223;-68
2024/01/30 23:16:31;;;;;;;6.10;4.53;;;;;;;;;;10360143;28;20215;-68
2024/01/30 23:21:31;;;;;;;6.75;4.70;;;;;;;;;;10345809;28;20216;-67
2024/01/30 23:26:31;;;;;;;6.72;5.07;;;;;;;;;;10344381;28;20204;-67
2024/01/30 23:31:32;;;;;;;5.95;4.07;;;;;;;;;;10346545;28;20741;-67
2024/01/30 23:36:32;;;;;;;6.23;3.40;;;;;;;;;;10339678;28;21136;-67
2024/01/30 23:41:33;;;;;;;4.05;3.60;;;;;;;;;;10339975;28;20557;-67
2024/01/30 23:46:34;;;;;;;3.72;3.42;;;;;;;;;;10331861;28;20222;-67
2024/01/30 23:51:34;;;;;;;3.45;3.13;;;;;;;;;;10346380;28;20220;-67
2024/01/30 23:56:38;;;;;;;2.47;2.38;;;;;;;;;;10350671;28;20227;-67
